sensor_id;sensor_type;location;lat;lon;timestamp;P1;durP1;ratioP1;P2;durP2;ratioP2
69392;SDS011;56582;44.624;20.378;2023-05-14T00:01:11;10.90;;;8.67;;
69392;SDS011;56582;44.624;20.378;2023-05-14T00:03:37;12.00;;;8.37;;
69392;SDS011;56582;44.624;20.378;2023-05-14T00:06:04;10.93;;;7.97;;
69392;SDS011;56582;44.624;20.378;2023-05-14T00:08:30;10.45;;;9.23;;
69392;SDS011;56582;44.624;20.378;2023-05-14T00:10:56;12.90;;;8.60;;
69392;SDS011;56582;44.624;20.378;2023-05-14T00:13:21;13.40;;;7.97;;
69392;SDS011;56582;44.624;20.378;2023-05-14T00:15:47;12.10;;;8.82;;
69392;SDS011;56582;44.624;20.378;2023-05-14T00:18:12;15.10;;;9.23;;
69392;SDS011;56582;44.624;20.378;2023-05-14T00:20:38;12.13;;;8.77;;
69392;SDS011;56582;44.624;20.378;2023-05-14T00:23:03;12.25;;;9.30;;
69392;SDS011;56582;44.624;20.378;2023-05-14T00:25:29;10.77;;;8.23;;
69392;SDS011;56582;44.624;20.378;2023-05-14T00:27:54;11.97;;;8.63;;
69392;SDS011;56582;44.624;20.378;2023-05-14T00:30:20;12.97;;;8.50;;
69392;SDS011;56582;44.624;20.378;2023-05-14T00:32:45;11.35;;;8.68;;
69392;SDS011;56582;44.624;20.378;2023-05-14T00:35:11;12.80;;;9.03;;
69392;SDS011;56582;44.624;20.378;2023-05-14T00:37:37;15.50;;;10.33;;
69392;SDS011;56582;44.624;20.378;2023-05-14T00:40:03;13.18;;;9.27;;
69392;SDS011;56582;44.624;20.378;2023-05-14T00:42:30;13.15;;;9.82;;
69392;SDS011;56582;44.624;20.378;2023-05-14T00:44:56;13.43;;;9.57;;
69392;SDS011;56582;44.624;20.378;2023-05-14T00:47:21;11.23;;;8.77;;
69392;SDS011;56582;44.624;20.378;2023-05-14T00:49:47;13.02;;;9.48;;
69392;SDS011;56582;44.624;20.378;2023-05-14T00:52:12;14.40;;;8.60;;
69392;SDS011;56582;44.624;20.378;2023-05-14T00:54:39;16.45;;;9.52;;
69392;SDS011;56582;44.624;20.378;2023-05-14T00:57:05;12.10;;;8.37;;
69392;SDS011;56582;44.624;20.378;2023-05-14T00:59:30;15.02;;;9.32;;
69392;SDS011;56582;44.624;20.378;2023-05-14T01:01:56;13.27;;;8.43;;
69392;SDS011;56582;44.624;20.378;2023-05-14T01:04:21;12.13;;;8.68;;
69392;SDS011;56582;44.624;20.378;2023-05-14T01:09:41;13.85;;;9.10;;
69392;SDS011;56582;44.624;20.378;2023-05-14T01:15:10;16.27;;;10.35;;
69392;SDS011;56582;44.624;20.378;2023-05-14T01:17:42;12.23;;;9.27;;
69392;SDS011;56582;44.624;20.378;2023-05-14T01:20:11;15.77;;;9.07;;
69392;SDS011;56582;44.624;20.378;2023-05-14T01:22:37;14.27;;;9.35;;
69392;SDS011;56582;44.624;20.378;2023-05-14T01:25:03;14.10;;;8.53;;
69392;SDS011;56582;44.624;20.378;2023-05-14T01:32:43;12.82;;;8.05;;
69392;SDS011;56582;44.624;20.378;2023-05-14T01:35:12;14.13;;;7.72;;
69392;SDS011;56582;44.624;20.378;2023-05-14T01:37:39;10.60;;;7.40;;
69392;SDS011;56582;44.624;20.378;2023-05-14T01:40:06;10.38;;;7.85;;
69392;SDS011;56582;44.624;20.378;2023-05-14T01:42:33;11.25;;;6.88;;
69392;SDS011;56582;44.624;20.378;2023-05-14T01:44:59;17.75;;;8.15;;
69392;SDS011;56582;44.624;20.378;2023-05-14T01:47:25;9.23;;;7.13;;
69392;SDS011;56582;44.624;20.378;2023-05-14T01:49:51;10.80;;;6.23;;
69392;SDS011;56582;44.624;20.378;2023-05-14T01:52:16;9.13;;;6.50;;
69392;SDS011;56582;44.624;20.378;2023-05-14T01:54:45;10.02;;;6.18;;
69392;SDS011;56582;44.624;20.378;2023-05-14T01:57:11;9.88;;;6.60;;
69392;SDS011;56582;44.624;20.378;2023-05-14T01:59:36;13.20;;;6.67;;
69392;SDS011;56582;44.624;20.378;2023-05-14T02:02:01;10.63;;;7.13;;
69392;SDS011;56582;44.624;20.378;2023-05-14T02:04:27;8.88;;;6.28;;
69392;SDS011;56582;44.624;20.378;2023-05-14T02:06:53;7.93;;;5.80;;
69392;SDS011;56582;44.624;20.378;2023-05-14T02:09:18;8.07;;;6.10;;
69392;SDS011;56582;44.624;20.378;2023-05-14T02:11:43;7.97;;;6.17;;
69392;SDS011;56582;44.624;20.378;2023-05-14T02:14:09;14.10;;;5.93;;
69392;SDS011;56582;44.624;20.378;2023-05-14T02:16:34;8.37;;;6.80;;
69392;SDS011;56582;44.624;20.378;2023-05-14T02:19:00;9.50;;;6.47;;
69392;SDS011;56582;44.624;20.378;2023-05-14T02:21:25;8.40;;;5.67;;
69392;SDS011;56582;44.624;20.378;2023-05-14T02:23:51;8.75;;;5.45;;
69392;SDS011;56582;44.624;20.378;2023-05-14T02:26:16;8.00;;;5.63;;
69392;SDS011;56582;44.624;20.378;2023-05-14T02:28:41;9.23;;;4.60;;
69392;SDS011;56582;44.624;20.378;2023-05-14T02:31:07;11.60;;;5.55;;
69392;SDS011;56582;44.624;20.378;2023-05-14T02:33:32;11.07;;;5.33;;
69392;SDS011;56582;44.624;20.378;2023-05-14T02:35:58;9.00;;;5.60;;
69392;SDS011;56582;44.624;20.378;2023-05-14T02:38:24;8.30;;;5.57;;
69392;SDS011;56582;44.624;20.378;2023-05-14T02:40:50;7.50;;;4.70;;
69392;SDS011;56582;44.624;20.378;2023-05-14T02:43:15;9.70;;;5.77;;
69392;SDS011;56582;44.624;20.378;2023-05-14T02:45:41;7.45;;;5.35;;
69392;SDS011;56582;44.624;20.378;2023-05-14T02:48:07;13.10;;;5.37;;
69392;SDS011;56582;44.624;20.378;2023-05-14T02:50:32;7.83;;;5.27;;
69392;SDS011;56582;44.624;20.378;2023-05-14T02:52:57;9.55;;;6.00;;
69392;SDS011;56582;44.624;20.378;2023-05-14T02:55:23;7.73;;;4.70;;
69392;SDS011;56582;44.624;20.378;2023-05-14T02:57:50;7.93;;;5.65;;
69392;SDS011;56582;44.624;20.378;2023-05-14T03:00:17;9.32;;;5.55;;
69392;SDS011;56582;44.624;20.378;2023-05-14T03:02:43;7.70;;;5.23;;
69392;SDS011;56582;44.624;20.378;2023-05-14T03:05:08;7.75;;;5.68;;
69392;SDS011;56582;44.624;20.378;2023-05-14T03:07:34;7.67;;;5.20;;
69392;SDS011;56582;44.624;20.378;2023-05-14T03:09:59;8.73;;;5.30;;
69392;SDS011;56582;44.624;20.378;2023-05-14T03:12:25;8.77;;;4.50;;
69392;SDS011;56582;44.624;20.378;2023-05-14T03:14:51;9.60;;;5.47;;
69392;SDS011;56582;44.624;20.378;2023-05-14T03:17:16;8.73;;;6.03;;
69392;SDS011;56582;44.624;20.378;2023-05-14T03:19:42;11.70;;;6.00;;
69392;SDS011;56582;44.624;20.378;2023-05-14T03:22:07;9.00;;;5.13;;
69392;SDS011;56582;44.624;20.378;2023-05-14T03:24:33;8.55;;;5.10;;
69392;SDS011;56582;44.624;20.378;2023-05-14T03:26:58;8.43;;;5.30;;
69392;SDS011;56582;44.624;20.378;2023-05-14T03:29:24;9.38;;;6.00;;
69392;SDS011;56582;44.624;20.378;2023-05-14T03:31:49;8.57;;;4.90;;
69392;SDS011;56582;44.624;20.378;2023-05-14T03:34:15;12.53;;;6.83;;
69392;SDS011;56582;44.624;20.378;2023-05-14T03:36:40;9.38;;;5.63;;
69392;SDS011;56582;44.624;20.378;2023-05-14T03:39:06;8.73;;;5.50;;
69392;SDS011;56582;44.624;20.378;2023-05-14T03:41:33;9.77;;;6.03;;
69392;SDS011;56582;44.624;20.378;2023-05-14T03:43:59;9.93;;;6.13;;
69392;SDS011;56582;44.624;20.378;2023-05-14T03:46:24;10.40;;;7.10;;
69392;SDS011;56582;44.624;20.378;2023-05-14T03:48:49;9.43;;;5.17;;
69392;SDS011;56582;44.624;20.378;2023-05-14T03:51:15;9.23;;;5.72;;
69392;SDS011;56582;44.624;20.378;2023-05-14T03:53:40;8.47;;;6.13;;
69392;SDS011;56582;44.624;20.378;2023-05-14T03:56:06;10.07;;;6.57;;
69392;SDS011;56582;44.624;20.378;2023-05-14T03:58:31;10.45;;;5.53;;
69392;SDS011;56582;44.624;20.378;2023-05-14T04:00:57;11.20;;;6.93;;
69392;SDS011;56582;44.624;20.378;2023-05-14T04:03:22;9.73;;;6.00;;
69392;SDS011;56582;44.624;20.378;2023-05-14T04:05:49;9.95;;;6.68;;
69392;SDS011;56582;44.624;20.378;2023-05-14T04:08:14;9.13;;;6.40;;
69392;SDS011;56582;44.624;20.378;2023-05-14T04:10:41;11.52;;;6.50;;
69392;SDS011;56582;44.624;20.378;2023-05-14T04:13:07;10.63;;;6.43;;
69392;SDS011;56582;44.624;20.378;2023-05-14T04:15:32;10.57;;;6.80;;
69392;SDS011;56582;44.624;20.378;2023-05-14T04:17:59;9.10;;;6.43;;
69392;SDS011;56582;44.624;20.378;2023-05-14T04:20:25;9.10;;;6.03;;
69392;SDS011;56582;44.624;20.378;2023-05-14T04:22:50;9.13;;;6.60;;
69392;SDS011;56582;44.624;20.378;2023-05-14T04:25:16;8.97;;;7.10;;
69392;SDS011;56582;44.624;20.378;2023-05-14T04:27:42;8.70;;;6.10;;
69392;SDS011;56582;44.624;20.378;2023-05-14T04:30:08;9.23;;;6.90;;
69392;SDS011;56582;44.624;20.378;2023-05-14T04:32:34;9.90;;;6.70;;
69392;SDS011;56582;44.624;20.378;2023-05-14T04:34:59;12.37;;;7.33;;
69392;SDS011;56582;44.624;20.378;2023-05-14T04:37:25;9.65;;;6.35;;
69392;SDS011;56582;44.624;20.378;2023-05-14T04:39:50;11.50;;;7.00;;
69392;SDS011;56582;44.624;20.378;2023-05-14T04:42:15;12.60;;;7.00;;
69392;SDS011;56582;44.624;20.378;2023-05-14T04:44:41;10.13;;;6.73;;
69392;SDS011;56582;44.624;20.378;2023-05-14T04:47:06;10.70;;;8.30;;
69392;SDS011;56582;44.624;20.378;2023-05-14T04:49:32;10.60;;;6.13;;
69392;SDS011;56582;44.624;20.378;2023-05-14T04:51:57;12.77;;;7.03;;
69392;SDS011;56582;44.624;20.378;2023-05-14T04:54:23;11.60;;;7.43;;
69392;SDS011;56582;44.624;20.378;2023-05-14T04:56:49;11.07;;;6.87;;
69392;SDS011;56582;44.624;20.378;2023-05-14T04:59:15;12.80;;;6.85;;
69392;SDS011;56582;44.624;20.378;2023-05-14T05:01:40;11.13;;;6.33;;
69392;SDS011;56582;44.624;20.378;2023-05-14T05:04:06;12.60;;;7.03;;
69392;SDS011;56582;44.624;20.378;2023-05-14T05:06:31;9.93;;;7.33;;
69392;SDS011;56582;44.624;20.378;2023-05-14T05:08:56;8.80;;;5.70;;
69392;SDS011;56582;44.624;20.378;2023-05-14T05:11:22;9.10;;;6.77;;
69392;SDS011;56582;44.624;20.378;2023-05-14T05:13:48;10.63;;;6.50;;
69392;SDS011;56582;44.624;20.378;2023-05-14T05:16:14;10.07;;;6.32;;
69392;SDS011;56582;44.624;20.378;2023-05-14T05:18:40;9.80;;;6.13;;
69392;SDS011;56582;44.624;20.378;2023-05-14T05:21:05;20.03;;;11.77;;
69392;SDS011;56582;44.624;20.378;2023-05-14T05:23:30;24.65;;;15.85;;
69392;SDS011;56582;44.624;20.378;2023-05-14T05:25:56;11.27;;;8.30;;
69392;SDS011;56582;44.624;20.378;2023-05-14T05:28:21;10.93;;;7.67;;
69392;SDS011;56582;44.624;20.378;2023-05-14T05:30:47;8.97;;;6.00;;
69392;SDS011;56582;44.624;20.378;2023-05-14T05:33:12;9.65;;;6.78;;
69392;SDS011;56582;44.624;20.378;2023-05-14T05:35:38;8.50;;;6.93;;
69392;SDS011;56582;44.624;20.378;2023-05-14T05:38:03;9.60;;;6.73;;
69392;SDS011;56582;44.624;20.378;2023-05-14T05:40:29;8.90;;;5.93;;
69392;SDS011;56582;44.624;20.378;2023-05-14T05:42:54;10.07;;;7.25;;
69392;SDS011;56582;44.624;20.378;2023-05-14T05:45:20;10.10;;;6.90;;
69392;SDS011;56582;44.624;20.378;2023-05-14T05:47:45;12.70;;;6.72;;
69392;SDS011;56582;44.624;20.378;2023-05-14T05:50:11;10.93;;;7.33;;
69392;SDS011;56582;44.624;20.378;2023-05-14T05:52:36;10.90;;;6.70;;
69392;SDS011;56582;44.624;20.378;2023-05-14T05:55:02;9.50;;;6.82;;
69392;SDS011;56582;44.624;20.378;2023-05-14T05:57:28;10.13;;;6.27;;
69392;SDS011;56582;44.624;20.378;2023-05-14T05:59:53;8.77;;;6.45;;
69392;SDS011;56582;44.624;20.378;2023-05-14T06:02:19;9.07;;;7.27;;
69392;SDS011;56582;44.624;20.378;2023-05-14T06:04:44;9.77;;;7.30;;
69392;SDS011;56582;44.624;20.378;2023-05-14T06:07:10;11.60;;;8.17;;
69392;SDS011;56582;44.624;20.378;2023-05-14T06:09:35;10.27;;;7.78;;
69392;SDS011;56582;44.624;20.378;2023-05-14T06:12:00;9.80;;;6.90;;
69392;SDS011;56582;44.624;20.378;2023-05-14T06:14:26;10.37;;;7.40;;
69392;SDS011;56582;44.624;20.378;2023-05-14T06:16:51;9.37;;;6.93;;
69392;SDS011;56582;44.624;20.378;2023-05-14T06:19:17;10.52;;;7.68;;
69392;SDS011;56582;44.624;20.378;2023-05-14T06:21:43;10.50;;;7.27;;
69392;SDS011;56582;44.624;20.378;2023-05-14T06:24:08;9.45;;;6.45;;
69392;SDS011;56582;44.624;20.378;2023-05-14T06:26:34;10.17;;;6.90;;
69392;SDS011;56582;44.624;20.378;2023-05-14T06:28:59;10.25;;;7.30;;
69392;SDS011;56582;44.624;20.378;2023-05-14T06:31:25;9.83;;;6.77;;
69392;SDS011;56582;44.624;20.378;2023-05-14T06:33:50;10.20;;;7.07;;
69392;SDS011;56582;44.624;20.378;2023-05-14T06:36:16;10.30;;;7.20;;
69392;SDS011;56582;44.624;20.378;2023-05-14T06:38:41;10.03;;;7.23;;
69392;SDS011;56582;44.624;20.378;2023-05-14T06:41:07;10.50;;;8.23;;
69392;SDS011;56582;44.624;20.378;2023-05-14T06:43:32;11.03;;;7.83;;
69392;SDS011;56582;44.624;20.378;2023-05-14T06:45:57;10.27;;;6.90;;
69392;SDS011;56582;44.624;20.378;2023-05-14T06:48:23;11.60;;;8.17;;
69392;SDS011;56582;44.624;20.378;2023-05-14T06:50:51;9.57;;;6.43;;
69392;SDS011;56582;44.624;20.378;2023-05-14T06:53:17;10.80;;;7.97;;
69392;SDS011;56582;44.624;20.378;2023-05-14T06:55:42;11.47;;;7.97;;
69392;SDS011;56582;44.624;20.378;2023-05-14T06:58:08;11.23;;;7.43;;
69392;SDS011;56582;44.624;20.378;2023-05-14T07:00:33;10.43;;;7.68;;
69392;SDS011;56582;44.624;20.378;2023-05-14T07:02:59;9.50;;;7.17;;
69392;SDS011;56582;44.624;20.378;2023-05-14T07:05:25;10.25;;;7.70;;
69392;SDS011;56582;44.624;20.378;2023-05-14T07:07:50;10.40;;;8.47;;
69392;SDS011;56582;44.624;20.378;2023-05-14T07:10:15;10.27;;;7.70;;
69392;SDS011;56582;44.624;20.378;2023-05-14T07:12:41;10.88;;;7.35;;
69392;SDS011;56582;44.624;20.378;2023-05-14T07:15:07;11.10;;;7.07;;
69392;SDS011;56582;44.624;20.378;2023-05-14T07:17:33;9.18;;;8.20;;
69392;SDS011;56582;44.624;20.378;2023-05-14T07:19:58;9.90;;;7.87;;
69392;SDS011;56582;44.624;20.378;2023-05-14T07:22:25;11.98;;;8.18;;
69392;SDS011;56582;44.624;20.378;2023-05-14T07:24:50;12.07;;;7.87;;
69392;SDS011;56582;44.624;20.378;2023-05-14T07:27:15;10.80;;;8.67;;
69392;SDS011;56582;44.624;20.378;2023-05-14T07:29:41;11.63;;;8.93;;
69392;SDS011;56582;44.624;20.378;2023-05-14T07:32:07;11.20;;;8.37;;
69392;SDS011;56582;44.624;20.378;2023-05-14T07:34:33;10.85;;;8.70;;
69392;SDS011;56582;44.624;20.378;2023-05-14T07:36:58;11.70;;;8.37;;
69392;SDS011;56582;44.624;20.378;2023-05-14T07:39:24;11.07;;;8.55;;
69392;SDS011;56582;44.624;20.378;2023-05-14T07:41:49;11.07;;;8.50;;
69392;SDS011;56582;44.624;20.378;2023-05-14T07:44:15;11.17;;;8.07;;
69392;SDS011;56582;44.624;20.378;2023-05-14T07:46:41;13.18;;;7.82;;
69392;SDS011;56582;44.624;20.378;2023-05-14T07:49:09;10.67;;;7.97;;
69392;SDS011;56582;44.624;20.378;2023-05-14T07:51:34;12.50;;;8.60;;
69392;SDS011;56582;44.624;20.378;2023-05-14T07:54:00;10.35;;;8.27;;
69392;SDS011;56582;44.624;20.378;2023-05-14T07:56:25;10.17;;;8.10;;
69392;SDS011;56582;44.624;20.378;2023-05-14T07:58:51;10.43;;;7.40;;
69392;SDS011;56582;44.624;20.378;2023-05-14T08:01:16;10.57;;;8.10;;
69392;SDS011;56582;44.624;20.378;2023-05-14T08:03:42;11.35;;;8.23;;
69392;SDS011;56582;44.624;20.378;2023-05-14T08:06:07;9.87;;;7.30;;
69392;SDS011;56582;44.624;20.378;2023-05-14T08:08:33;10.47;;;7.40;;
69392;SDS011;56582;44.624;20.378;2023-05-14T08:10:58;9.90;;;8.47;;
69392;SDS011;56582;44.624;20.378;2023-05-14T08:13:24;10.70;;;8.05;;
69392;SDS011;56582;44.624;20.378;2023-05-14T08:15:50;11.57;;;7.33;;
69392;SDS011;56582;44.624;20.378;2023-05-14T08:18:15;10.07;;;7.17;;
69392;SDS011;56582;44.624;20.378;2023-05-14T08:20:41;10.63;;;6.65;;
69392;SDS011;56582;44.624;20.378;2023-05-14T08:23:06;9.63;;;6.73;;
69392;SDS011;56582;44.624;20.378;2023-05-14T08:25:33;10.25;;;8.23;;
69392;SDS011;56582;44.624;20.378;2023-05-14T08:27:58;11.77;;;8.13;;
69392;SDS011;56582;44.624;20.378;2023-05-14T08:30:24;11.87;;;8.10;;
69392;SDS011;56582;44.624;20.378;2023-05-14T08:32:50;13.17;;;10.07;;
69392;SDS011;56582;44.624;20.378;2023-05-14T08:35:18;18.90;;;12.32;;
69392;SDS011;56582;44.624;20.378;2023-05-14T08:37:44;10.98;;;8.85;;
69392;SDS011;56582;44.624;20.378;2023-05-14T08:40:11;16.43;;;10.27;;
69392;SDS011;56582;44.624;20.378;2023-05-14T08:42:37;12.68;;;8.88;;
69392;SDS011;56582;44.624;20.378;2023-05-14T08:45:04;12.20;;;9.82;;
69392;SDS011;56582;44.624;20.378;2023-05-14T08:47:32;10.83;;;7.90;;
69392;SDS011;56582;44.624;20.378;2023-05-14T08:52:28;10.63;;;7.13;;
69392;SDS011;56582;44.624;20.378;2023-05-14T08:54:54;9.27;;;6.43;;
69392;SDS011;56582;44.624;20.378;2023-05-14T08:57:21;8.40;;;5.85;;
69392;SDS011;56582;44.624;20.378;2023-05-14T08:59:49;8.02;;;6.53;;
69392;SDS011;56582;44.624;20.378;2023-05-14T09:02:15;9.73;;;6.57;;
69392;SDS011;56582;44.624;20.378;2023-05-14T09:04:44;10.02;;;7.10;;
69392;SDS011;56582;44.624;20.378;2023-05-14T09:07:11;8.50;;;7.33;;
69392;SDS011;56582;44.624;20.378;2023-05-14T09:09:37;11.10;;;8.43;;
69392;SDS011;56582;44.624;20.378;2023-05-14T09:12:03;11.20;;;8.68;;
69392;SDS011;56582;44.624;20.378;2023-05-14T09:14:31;9.30;;;7.20;;
69392;SDS011;56582;44.624;20.378;2023-05-14T09:16:57;9.63;;;7.38;;
69392;SDS011;56582;44.624;20.378;2023-05-14T09:19:23;8.00;;;6.03;;
69392;SDS011;56582;44.624;20.378;2023-05-14T09:21:49;8.30;;;7.45;;
69392;SDS011;56582;44.624;20.378;2023-05-14T09:24:22;10.03;;;7.67;;
69392;SDS011;56582;44.624;20.378;2023-05-14T09:26:52;10.23;;;7.65;;
69392;SDS011;56582;44.624;20.378;2023-05-14T09:29:19;9.10;;;6.03;;
69392;SDS011;56582;44.624;20.378;2023-05-14T09:31:44;7.03;;;5.88;;
69392;SDS011;56582;44.624;20.378;2023-05-14T09:34:10;8.23;;;6.43;;
69392;SDS011;56582;44.624;20.378;2023-05-14T09:36:35;8.55;;;5.53;;
69392;SDS011;56582;44.624;20.378;2023-05-14T09:39:04;8.23;;;5.93;;
69392;SDS011;56582;44.624;20.378;2023-05-14T09:41:29;10.43;;;6.22;;
69392;SDS011;56582;44.624;20.378;2023-05-14T09:43:55;9.20;;;6.70;;
69392;SDS011;56582;44.624;20.378;2023-05-14T09:46:21;10.25;;;5.55;;
69392;SDS011;56582;44.624;20.378;2023-05-14T09:48:47;8.60;;;6.87;;
69392;SDS011;56582;44.624;20.378;2023-05-14T09:51:13;10.23;;;6.43;;
69392;SDS011;56582;44.624;20.378;2023-05-14T09:53:38;9.87;;;7.10;;
69392;SDS011;56582;44.624;20.378;2023-05-14T09:56:05;8.40;;;6.45;;
69392;SDS011;56582;44.624;20.378;2023-05-14T09:58:31;7.95;;;5.50;;
69392;SDS011;56582;44.624;20.378;2023-05-14T10:00:56;6.37;;;4.80;;
69392;SDS011;56582;44.624;20.378;2023-05-14T10:03:23;10.00;;;6.57;;
69392;SDS011;56582;44.624;20.378;2023-05-14T10:05:51;8.60;;;6.63;;
69392;SDS011;56582;44.624;20.378;2023-05-14T10:08:23;8.17;;;6.73;;
69392;SDS011;56582;44.624;20.378;2023-05-14T10:10:52;7.28;;;6.22;;
69392;SDS011;56582;44.624;20.378;2023-05-14T10:13:19;8.85;;;6.45;;
69392;SDS011;56582;44.624;20.378;2023-05-14T10:15:50;8.02;;;5.22;;
69392;SDS011;56582;44.624;20.378;2023-05-14T10:18:22;7.97;;;6.05;;
69392;SDS011;56582;44.624;20.378;2023-05-14T10:20:52;7.23;;;5.37;;
69392;SDS011;56582;44.624;20.378;2023-05-14T10:23:31;8.20;;;5.97;;
69392;SDS011;56582;44.624;20.378;2023-05-14T10:26:02;7.25;;;5.53;;
69392;SDS011;56582;44.624;20.378;2023-05-14T10:28:28;7.20;;;5.90;;
69392;SDS011;56582;44.624;20.378;2023-05-14T10:30:54;8.13;;;5.80;;
69392;SDS011;56582;44.624;20.378;2023-05-14T10:33:20;8.37;;;5.80;;
69392;SDS011;56582;44.624;20.378;2023-05-14T10:35:58;7.13;;;5.60;;
69392;SDS011;56582;44.624;20.378;2023-05-14T10:38:31;7.97;;;4.80;;
69392;SDS011;56582;44.624;20.378;2023-05-14T10:41:00;7.97;;;5.15;;
69392;SDS011;56582;44.624;20.378;2023-05-14T10:43:29;7.50;;;4.82;;
69392;SDS011;56582;44.624;20.378;2023-05-14T10:46:00;6.63;;;4.63;;
69392;SDS011;56582;44.624;20.378;2023-05-14T10:48:26;6.60;;;4.30;;
69392;SDS011;56582;44.624;20.378;2023-05-14T10:50:52;6.63;;;5.18;;
69392;SDS011;56582;44.624;20.378;2023-05-14T10:53:19;6.68;;;5.25;;
69392;SDS011;56582;44.624;20.378;2023-05-14T10:55:54;6.78;;;4.90;;
69392;SDS011;56582;44.624;20.378;2023-05-14T10:58:19;8.43;;;5.60;;
69392;SDS011;56582;44.624;20.378;2023-05-14T11:00:46;6.05;;;4.85;;
69392;SDS011;56582;44.624;20.378;2023-05-14T11:03:12;7.07;;;5.30;;
69392;SDS011;56582;44.624;20.378;2023-05-14T11:05:38;7.57;;;5.87;;
69392;SDS011;56582;44.624;20.378;2023-05-14T11:08:05;6.95;;;5.53;;
69392;SDS011;56582;44.624;20.378;2023-05-14T11:10:32;5.90;;;4.93;;
69392;SDS011;56582;44.624;20.378;2023-05-14T11:12:59;6.90;;;5.13;;
69392;SDS011;56582;44.624;20.378;2023-05-14T11:15:24;7.10;;;5.03;;
69392;SDS011;56582;44.624;20.378;2023-05-14T11:17:52;9.85;;;4.57;;
69392;SDS011;56582;44.624;20.378;2023-05-14T11:20:18;8.00;;;4.93;;
69392;SDS011;56582;44.624;20.378;2023-05-14T11:22:45;6.60;;;5.00;;
69392;SDS011;56582;44.624;20.378;2023-05-14T11:25:12;6.70;;;4.60;;
69392;SDS011;56582;44.624;20.378;2023-05-14T11:27:38;6.35;;;5.18;;
69392;SDS011;56582;44.624;20.378;2023-05-14T11:30:15;6.68;;;5.35;;
69392;SDS011;56582;44.624;20.378;2023-05-14T11:32:43;5.65;;;4.40;;
69392;SDS011;56582;44.624;20.378;2023-05-14T11:35:09;6.93;;;4.78;;
69392;SDS011;56582;44.624;20.378;2023-05-14T11:37:35;5.63;;;4.40;;
69392;SDS011;56582;44.624;20.378;2023-05-14T11:40:00;7.03;;;4.93;;
69392;SDS011;56582;44.624;20.378;2023-05-14T11:42:26;7.78;;;4.78;;
69392;SDS011;56582;44.624;20.378;2023-05-14T11:44:52;8.07;;;4.07;;
69392;SDS011;56582;44.624;20.378;2023-05-14T11:47:21;6.70;;;4.45;;
69392;SDS011;56582;44.624;20.378;2023-05-14T11:49:47;6.53;;;4.60;;
69392;SDS011;56582;44.624;20.378;2023-05-14T11:52:13;6.70;;;4.47;;
69392;SDS011;56582;44.624;20.378;2023-05-14T11:54:40;7.00;;;4.90;;
69392;SDS011;56582;44.624;20.378;2023-05-14T11:57:07;6.80;;;4.43;;
69392;SDS011;56582;44.624;20.378;2023-05-14T11:59:35;7.20;;;5.05;;
69392;SDS011;56582;44.624;20.378;2023-05-14T12:02:01;6.55;;;5.07;;
69392;SDS011;56582;44.624;20.378;2023-05-14T12:04:29;5.60;;;4.72;;
69392;SDS011;56582;44.624;20.378;2023-05-14T12:06:56;6.95;;;4.95;;
69392;SDS011;56582;44.624;20.378;2023-05-14T12:09:23;8.87;;;4.50;;
69392;SDS011;56582;44.624;20.378;2023-05-14T12:11:49;5.50;;;4.10;;
69392;SDS011;56582;44.624;20.378;2023-05-14T12:14:16;6.60;;;4.87;;
69392;SDS011;56582;44.624;20.378;2023-05-14T12:16:46;5.90;;;4.40;;
69392;SDS011;56582;44.624;20.378;2023-05-14T12:19:15;8.77;;;3.92;;
69392;SDS011;56582;44.624;20.378;2023-05-14T12:21:44;7.78;;;4.38;;
69392;SDS011;56582;44.624;20.378;2023-05-14T12:24:16;6.25;;;4.32;;
69392;SDS011;56582;44.624;20.378;2023-05-14T12:26:43;7.20;;;3.93;;
69392;SDS011;56582;44.624;20.378;2023-05-14T12:29:11;6.70;;;4.47;;
69392;SDS011;56582;44.624;20.378;2023-05-14T12:31:37;6.55;;;4.38;;
69392;SDS011;56582;44.624;20.378;2023-05-14T12:34:12;7.45;;;4.20;;
69392;SDS011;56582;44.624;20.378;2023-05-14T12:36:38;10.80;;;5.22;;
69392;SDS011;56582;44.624;20.378;2023-05-14T12:39:04;5.80;;;3.80;;
69392;SDS011;56582;44.624;20.378;2023-05-14T12:41:30;6.22;;;4.97;;
69392;SDS011;56582;44.624;20.378;2023-05-14T12:43:56;6.20;;;4.83;;
69392;SDS011;56582;44.624;20.378;2023-05-14T12:46:21;8.73;;;4.85;;
69392;SDS011;56582;44.624;20.378;2023-05-14T12:48:47;6.47;;;4.37;;
69392;SDS011;56582;44.624;20.378;2023-05-14T12:51:13;6.30;;;4.65;;
69392;SDS011;56582;44.624;20.378;2023-05-14T12:53:38;6.90;;;4.80;;
69392;SDS011;56582;44.624;20.378;2023-05-14T12:56:04;6.88;;;4.15;;
69392;SDS011;56582;44.624;20.378;2023-05-14T12:58:30;7.30;;;4.75;;
69392;SDS011;56582;44.624;20.378;2023-05-14T13:00:55;7.63;;;3.97;;
69392;SDS011;56582;44.624;20.378;2023-05-14T13:03:21;5.53;;;4.07;;
69392;SDS011;56582;44.624;20.378;2023-05-14T13:05:50;5.45;;;3.90;;
69392;SDS011;56582;44.624;20.378;2023-05-14T13:08:16;6.30;;;4.00;;
69392;SDS011;56582;44.624;20.378;2023-05-14T13:10:42;5.77;;;4.40;;
69392;SDS011;56582;44.624;20.378;2023-05-14T13:13:08;8.00;;;4.40;;
69392;SDS011;56582;44.624;20.378;2023-05-14T13:15:35;10.07;;;6.07;;
69392;SDS011;56582;44.624;20.378;2023-05-14T13:18:03;8.02;;;5.45;;
69392;SDS011;56582;44.624;20.378;2023-05-14T13:20:29;8.63;;;5.70;;
69392;SDS011;56582;44.624;20.378;2023-05-14T13:22:55;6.03;;;4.75;;
69392;SDS011;56582;44.624;20.378;2023-05-14T13:25:21;7.43;;;5.17;;
69392;SDS011;56582;44.624;20.378;2023-05-14T13:27:47;6.60;;;4.80;;
69392;SDS011;56582;44.624;20.378;2023-05-14T13:30:15;6.82;;;4.70;;
69392;SDS011;56582;44.624;20.378;2023-05-14T13:32:41;9.77;;;5.10;;
69392;SDS011;56582;44.624;20.378;2023-05-14T13:35:07;6.40;;;4.83;;
69392;SDS011;56582;44.624;20.378;2023-05-14T13:37:33;6.23;;;4.63;;
69392;SDS011;56582;44.624;20.378;2023-05-14T13:39:58;6.40;;;4.88;;
69392;SDS011;56582;44.624;20.378;2023-05-14T13:42:24;9.93;;;5.00;;
69392;SDS011;56582;44.624;20.378;2023-05-14T13:44:49;6.60;;;4.90;;
69392;SDS011;56582;44.624;20.378;2023-05-14T13:47:15;6.00;;;4.40;;
69392;SDS011;56582;44.624;20.378;2023-05-14T13:49:40;8.73;;;5.03;;
69392;SDS011;56582;44.624;20.378;2023-05-14T13:52:07;7.75;;;5.25;;
69392;SDS011;56582;44.624;20.378;2023-05-14T13:54:32;7.03;;;4.33;;
69392;SDS011;56582;44.624;20.378;2023-05-14T13:56:58;6.40;;;5.20;;
69392;SDS011;56582;44.624;20.378;2023-05-14T13:59:23;5.88;;;4.60;;
69392;SDS011;56582;44.624;20.378;2023-05-14T14:01:49;6.73;;;4.97;;
69392;SDS011;56582;44.624;20.378;2023-05-14T14:04:15;6.88;;;5.60;;
69392;SDS011;56582;44.624;20.378;2023-05-14T14:06:41;6.97;;;4.50;;
69392;SDS011;56582;44.624;20.378;2023-05-14T14:09:07;7.72;;;4.97;;
69392;SDS011;56582;44.624;20.378;2023-05-14T14:11:32;8.00;;;5.73;;
69392;SDS011;56582;44.624;20.378;2023-05-14T14:13:58;7.93;;;4.97;;
69392;SDS011;56582;44.624;20.378;2023-05-14T14:16:23;15.93;;;5.97;;
69392;SDS011;56582;44.624;20.378;2023-05-14T14:18:49;7.47;;;5.57;;
69392;SDS011;56582;44.624;20.378;2023-05-14T14:21:14;8.63;;;5.77;;
69392;SDS011;56582;44.624;20.378;2023-05-14T14:23:42;6.95;;;5.15;;
69392;SDS011;56582;44.624;20.378;2023-05-14T14:26:11;7.25;;;5.55;;
69392;SDS011;56582;44.624;20.378;2023-05-14T14:28:36;7.70;;;5.37;;
69392;SDS011;56582;44.624;20.378;2023-05-14T14:31:02;9.57;;;5.90;;
69392;SDS011;56582;44.624;20.378;2023-05-14T14:33:27;6.95;;;5.13;;
69392;SDS011;56582;44.624;20.378;2023-05-14T14:35:53;8.17;;;6.73;;